sensor_id;sensor_type;location;lat;lon;timestamp;pressure;altitude;pressure_sealevel;temperature;humidity
78623;BME280;67943;54.412;9.502;2024-03-23T00:56:54;100578.78;;;7.29;76.96
78623;BME280;67943;54.412;9.502;2024-03-23T01:01:55;100562.34;;;7.18;76.78
78623;BME280;67943;54.412;9.502;2024-03-23T01:06:55;100556.22;;;7.19;77.29
78623;BME280;67943;54.412;9.502;2024-03-23T01:11:58;100542.44;;;7.05;77.74
78623;BME280;67943;54.412;9.502;2024-03-23T01:16:59;100535.44;;;7.07;77.64
78623;BME280;67943;54.412;9.502;2024-03-23T01:22:00;100531.13;;;7.01;78.33
78623;BME280;67943;54.412;9.502;2024-03-23T01:27:03;100528.66;;;6.91;78.64
78623;BME280;67943;54.412;9.502;2024-03-23T01:32:05;100530.31;;;6.95;78.36
78623;BME280;67943;54.412;9.502;2024-03-23T01:37:05;100513.81;;;6.93;78.72
78623;BME280;67943;54.412;9.502;2024-03-23T01:42:09;100518.22;;;6.88;79.22
78623;BME280;67943;54.412;9.502;2024-03-23T01:47:09;100505.25;;;6.77;80.26
78623;BME280;67943;54.412;9.502;2024-03-23T01:52:10;100505.19;;;6.85;80.08
78623;BME280;67943;54.412;9.502;2024-03-23T01:57:13;100499.06;;;6.87;80.27
78623;BME280;67943;54.412;9.502;2024-03-23T02:02:14;100493.81;;;6.89;79.80
78623;BME280;67943;54.412;9.502;2024-03-23T02:07:15;100482.38;;;6.94;79.47
78623;BME280;67943;54.412;9.502;2024-03-23T02:12:18;100483.31;;;6.92;79.56
78623;BME280;67943;54.412;9.502;2024-03-23T02:17:19;100460.63;;;6.92;79.08
78623;BME280;67943;54.412;9.502;2024-03-23T02:22:20;100463.28;;;6.89;79.14
78623;BME280;67943;54.412;9.502;2024-03-23T02:27:24;100457.25;;;6.83;78.49
78623;BME280;67943;54.412;9.502;2024-03-23T02:32:25;100448.72;;;6.67;78.05
78623;BME280;67943;54.412;9.502;2024-03-23T02:37:25;100434.09;;;6.49;78.32
78623;BME280;67943;54.412;9.502;2024-03-23T02:42:28;100427.09;;;6.54;78.28
78623;BME280;67943;54.412;9.502;2024-03-23T02:47:29;100426.31;;;6.43;78.70
78623;BME280;67943;54.412;9.502;2024-03-23T02:52:30;100426.38;;;6.37;78.88
78623;BME280;67943;54.412;9.502;2024-03-23T02:57:34;100414.25;;;6.33;78.65
78623;BME280;67943;54.412;9.502;2024-03-23T03:02:35;100416.88;;;6.33;78.53
78623;BME280;67943;54.412;9.502;2024-03-23T03:07:36;100410.94;;;6.16;79.07
78623;BME280;67943;54.412;9.502;2024-03-23T03:12:39;100403.09;;;6.14;79.25
78623;BME280;67943;54.412;9.502;2024-03-23T03:17:40;100388.34;;;6.12;79.26
78623;BME280;67943;54.412;9.502;2024-03-23T03:22:41;100386.69;;;6.04;79.63
78623;BME280;67943;54.412;9.502;2024-03-23T03:27:44;100386.75;;;5.98;80.07
78623;BME280;67943;54.412;9.502;2024-03-23T03:32:45;100381.59;;;5.89;80.25
78623;BME280;67943;54.412;9.502;2024-03-23T03:37:45;100368.56;;;5.83;80.27
78623;BME280;67943;54.412;9.502;2024-03-23T03:42:49;100368.63;;;5.77;80.71
78623;BME280;67943;54.412;9.502;2024-03-23T03:47:49;100359.94;;;5.75;80.66
78623;BME280;67943;54.412;9.502;2024-03-23T03:52:50;100344.31;;;5.70;80.74
78623;BME280;67943;54.412;9.502;2024-03-23T03:57:53;100353.94;;;5.65;81.31
78623;BME280;67943;54.412;9.502;2024-03-23T04:02:54;100342.63;;;5.65;81.22
78623;BME280;67943;54.412;9.502;2024-03-23T04:07:55;100331.34;;;5.63;81.59
78623;BME280;67943;54.412;9.502;2024-03-23T04:12:58;100334.81;;;5.65;81.81
78623;BME280;67943;54.412;9.502;2024-03-23T04:17:59;100333.09;;;5.61;82.27
78623;BME280;67943;54.412;9.502;2024-03-23T04:23:00;100340.09;;;5.56;82.17
78623;BME280;67943;54.412;9.502;2024-03-23T04:28:03;100331.41;;;5.54;82.76
78623;BME280;67943;54.412;9.502;2024-03-23T04:33:04;100334.09;;;5.48;83.64
78623;BME280;67943;54.412;9.502;2024-03-23T04:38:05;100329.66;;;5.53;83.33
78623;BME280;67943;54.412;9.502;2024-03-23T04:43:08;100321.06;;;5.45;83.07
78623;BME280;67943;54.412;9.502;2024-03-23T04:48:09;100312.38;;;5.42;83.67
78623;BME280;67943;54.412;9.502;2024-03-23T04:53:10;100315.03;;;5.38;83.87
78623;BME280;67943;54.412;9.502;2024-03-23T04:58:13;100315.03;;;5.36;84.31
78623;BME280;67943;54.412;9.502;2024-03-23T05:03:14;100311.56;;;5.36;83.84
78623;BME280;67943;54.412;9.502;2024-03-23T05:08:14;100311.59;;;5.30;84.56
78623;BME280;67943;54.412;9.502;2024-03-23T05:13:18;100295.97;;;5.27;84.70
78623;BME280;67943;54.412;9.502;2024-03-23T05:18:19;100298.53;;;5.34;84.48
78623;BME280;67943;54.412;9.502;2024-03-23T05:23:20;100297.66;;;5.37;84.71
78623;BME280;67943;54.412;9.502;2024-03-23T05:28:23;100291.59;;;5.33;85.27
78623;BME280;67943;54.412;9.502;2024-03-23T05:33:24;100294.13;;;5.41;85.50
78623;BME280;67943;54.412;9.502;2024-03-23T05:38:25;100291.59;;;5.33;85.76
78623;BME280;67943;54.412;9.502;2024-03-23T05:43:28;100288.13;;;5.31;86.88
78623;BME280;67943;54.412;9.502;2024-03-23T05:48:30;100293.34;;;5.31;87.00
78623;BME280;67943;54.412;9.502;2024-03-23T05:53:31;100285.50;;;5.34;87.88
78623;BME280;67943;54.412;9.502;2024-03-23T05:58:34;100278.47;;;5.42;88.04
78623;BME280;67943;54.412;9.502;2024-03-23T06:03:35;100275.88;;;5.42;87.59
78623;BME280;67943;54.412;9.502;2024-03-23T06:08:35;100272.34;;;5.48;87.96
78623;BME280;67943;54.412;9.502;2024-03-23T06:13:38;100264.31;;;5.66;88.32
78623;BME280;67943;54.412;9.502;2024-03-23T06:18:39;100260.63;;;5.84;88.11
78623;BME280;67943;54.412;9.502;2024-03-23T06:23:40;100259.66;;;5.97;87.96
78623;BME280;67943;54.412;9.502;2024-03-23T06:28:43;100262.09;;;6.13;87.29
78623;BME280;67943;54.412;9.502;2024-03-23T06:33:44;100268.91;;;6.26;87.84
78623;BME280;67943;54.412;9.502;2024-03-23T06:38:45;100264.28;;;6.44;87.32
78623;BME280;67943;54.412;9.502;2024-03-23T06:43:48;100262.31;;;6.63;87.54
78623;BME280;67943;54.412;9.502;2024-03-23T06:48:49;100263.84;;;6.76;87.62
78623;BME280;67943;54.412;9.502;2024-03-23T06:53:50;100264.25;;;7.06;87.28
78623;BME280;67943;54.412;9.502;2024-03-23T06:58:53;100257.06;;;7.22;87.28
78623;BME280;67943;54.412;9.502;2024-03-23T07:03:54;100256.78;;;7.37;87.09
78623;BME280;67943;54.412;9.502;2024-03-23T07:08:54;100261.66;;;7.57;87.16
78623;BME280;67943;54.412;9.502;2024-03-23T07:13:58;100250.94;;;7.70;86.61
78623;BME280;67943;54.412;9.502;2024-03-23T07:18:58;100250.69;;;7.83;87.02
78623;BME280;67943;54.412;9.502;2024-03-23T07:23:59;100243.97;;;8.12;86.41
78623;BME280;67943;54.412;9.502;2024-03-23T07:29:03;100230.53;;;8.29;86.27
78623;BME280;67943;54.412;9.502;2024-03-23T07:34:03;100233.97;;;8.34;85.77
78623;BME280;67943;54.412;9.502;2024-03-23T07:39:04;100233.59;;;8.51;85.21
78623;BME280;67943;54.412;9.502;2024-03-23T07:44:07;100252.16;;;7.97;81.36
78623;BME280;67943;54.412;9.502;2024-03-23T07:49:08;100238.56;;;7.31;78.01
78623;BME280;67943;54.412;9.502;2024-03-23T07:54:09;100224.72;;;6.69;77.04
78623;BME280;67943;54.412;9.502;2024-03-23T07:59:12;100222.00;;;6.76;77.27
78623;BME280;67943;54.412;9.502;2024-03-23T08:04:13;100219.53;;;6.67;76.48
78623;BME280;67943;54.412;9.502;2024-03-23T08:09:13;100216.91;;;6.67;77.10
78623;BME280;67943;54.412;9.502;2024-03-23T08:14:16;100206.28;;;6.80;77.81
78623;BME280;67943;54.412;9.502;2024-03-23T08:19:17;100201.66;;;6.95;77.90
78623;BME280;67943;54.412;9.502;2024-03-23T08:24:18;100200.66;;;7.04;77.86
78623;BME280;67943;54.412;9.502;2024-03-23T08:29:21;100195.09;;;7.22;77.64
78623;BME280;67943;54.412;9.502;2024-03-23T08:34:22;100186.28;;;7.26;76.64
78623;BME280;67943;54.412;9.502;2024-03-23T08:39:23;100186.47;;;7.17;76.82
78623;BME280;67943;54.412;9.502;2024-03-23T08:44:26;100190.88;;;7.15;77.17
78623;BME280;67943;54.412;9.502;2024-03-23T08:49:27;100186.34;;;8.12;75.53
78623;BME280;67943;54.412;9.502;2024-03-23T08:54:27;100162.13;;;9.14;72.90
78623;BME280;67943;54.412;9.502;2024-03-23T08:59:31;100159.72;;;9.70;69.29
78623;BME280;67943;54.412;9.502;2024-03-23T09:04:31;100147.03;;;9.53;69.48
78623;BME280;67943;54.412;9.502;2024-03-23T09:09:32;100150.13;;;10.29;68.06
78623;BME280;67943;54.412;9.502;2024-03-23T09:14:35;100151.94;;;10.55;64.36
78623;BME280;67943;54.412;9.502;2024-03-23T09:19:36;100147.56;;;9.97;64.63
78623;BME280;67943;54.412;9.502;2024-03-23T09:24:38;100151.69;;;9.76;64.87
78623;BME280;67943;54.412;9.502;2024-03-23T09:29:42;100137.44;;;10.68;62.04
78623;BME280;67943;54.412;9.502;2024-03-23T09:34:42;100141.41;;;11.82;59.26
78623;BME280;67943;54.412;9.502;2024-03-23T09:39:43;100140.44;;;12.30;55.38
78623;BME280;67943;54.412;9.502;2024-03-23T09:44:48;100136.47;;;13.06;52.18
78623;BME280;67943;54.412;9.502;2024-03-23T09:49:51;100116.81;;;13.33;48.71
78623;BME280;67943;54.412;9.502;2024-03-23T09:54:52;100125.53;;;14.13;50.11
78623;BME280;67943;54.412;9.502;2024-03-23T09:59:55;100119.22;;;14.35;48.11
78623;BME280;67943;54.412;9.502;2024-03-23T10:04:56;100125.34;;;13.79;49.50
78623;BME280;67943;54.412;9.502;2024-03-23T10:09:57;100126.34;;;15.22;46.46
78623;BME280;67943;54.412;9.502;2024-03-23T10:15:00;100113.47;;;14.63;45.75
78623;BME280;67943;54.412;9.502;2024-03-23T10:20:01;100106.94;;;15.56;43.11
78623;BME280;67943;54.412;9.502;2024-03-23T10:25:06;100111.84;;;14.77;43.75
78623;BME280;67943;54.412;9.502;2024-03-23T10:30:11;100096.63;;;13.71;46.51
78623;BME280;67943;54.412;9.502;2024-03-23T10:35:17;100112.00;;;12.80;48.93
78623;BME280;67943;54.412;9.502;2024-03-23T10:40:19;100111.06;;;11.71;49.76
78623;BME280;67943;54.412;9.502;2024-03-23T10:45:22;100138.50;;;11.65;51.87
78623;BME280;67943;54.412;9.502;2024-03-23T10:50:23;100138.72;;;9.99;61.23
78623;BME280;67943;54.412;9.502;2024-03-23T10:55:24;100131.91;;;9.63;64.67
78623;BME280;67943;54.412;9.502;2024-03-23T11:00:27;100134.97;;;9.47;62.74
78623;BME280;67943;54.412;9.502;2024-03-23T11:05:28;100133.44;;;9.06;65.26
78623;BME280;67943;54.412;9.502;2024-03-23T11:10:30;100146.47;;;8.75;67.57
78623;BME280;67943;54.412;9.502;2024-03-23T11:15:34;100136.75;;;9.14;67.00
78623;BME280;67943;54.412;9.502;2024-03-23T11:20:35;100145.72;;;11.10;65.67
78623;BME280;67943;54.412;9.502;2024-03-23T11:25:36;100124.75;;;14.66;50.93
78623;BME280;67943;54.412;9.502;2024-03-23T11:30:39;100117.94;;;16.76;43.87
78623;BME280;67943;54.412;9.502;2024-03-23T11:35:40;100104.81;;;13.26;49.41
78623;BME280;67943;54.412;9.502;2024-03-23T11:40:41;100110.13;;;12.18;51.97
78623;BME280;67943;54.412;9.502;2024-03-23T11:45:46;100134.03;;;10.66;52.30
78623;BME280;67943;54.412;9.502;2024-03-23T11:50:48;100105.41;;;12.05;49.39
78623;BME280;67943;54.412;9.502;2024-03-23T11:55:50;100114.66;;;14.92;42.28
78623;BME280;67943;54.412;9.502;2024-03-23T12:00:56;100087.63;;;17.24;38.79
78623;BME280;67943;54.412;9.502;2024-03-23T12:05:59;100083.25;;;19.41;34.66
78623;BME280;67943;54.412;9.502;2024-03-23T12:11:07;100077.09;;;17.94;35.80
78623;BME280;67943;54.412;9.502;2024-03-23T12:16:12;100085.63;;;15.58;39.67
78623;BME280;67943;54.412;9.502;2024-03-23T12:21:13;100081.00;;;12.43;46.10
78623;BME280;67943;54.412;9.502;2024-03-23T12:26:14;100083.50;;;11.08;48.75
78623;BME280;67943;54.412;9.502;2024-03-23T12:31:17;100073.22;;;14.18;45.34
78623;BME280;67943;54.412;9.502;2024-03-23T12:36:18;100088.69;;;13.32;44.95
78623;BME280;67943;54.412;9.502;2024-03-23T12:41:18;100076.63;;;11.75;48.12
78623;BME280;67943;54.412;9.502;2024-03-23T12:46:22;100084.44;;;10.80;50.63
78623;BME280;67943;54.412;9.502;2024-03-23T12:51:22;100125.88;;;10.20;54.84
78623;BME280;67943;54.412;9.502;2024-03-23T12:56:23;100103.75;;;9.68;55.36
78623;BME280;67943;54.412;9.502;2024-03-23T13:01:26;100098.06;;;11.90;51.99
78623;BME280;67943;54.412;9.502;2024-03-23T13:06:27;100090.50;;;15.15;43.55
78623;BME280;67943;54.412;9.502;2024-03-23T13:11:28;100071.31;;;17.30;40.41
78623;BME280;67943;54.412;9.502;2024-03-23T13:16:31;100068.94;;;17.26;40.00
78623;BME280;67943;54.412;9.502;2024-03-23T13:21:32;100074.84;;;13.27;47.47
78623;BME280;67943;54.412;9.502;2024-03-23T13:26:32;100068.16;;;11.91;51.32
78623;BME280;67943;54.412;9.502;2024-03-23T13:31:36;100069.38;;;11.34;53.44
78623;BME280;67943;54.412;9.502;2024-03-23T13:36:37;100075.41;;;11.37;52.15
78623;BME280;67943;54.412;9.502;2024-03-23T13:41:38;100079.63;;;11.18;51.73
78623;BME280;67943;54.412;9.502;2024-03-23T13:46:42;100064.22;;;11.31;50.06
78623;BME280;67943;54.412;9.502;2024-03-23T13:51:46;100063.91;;;11.40;50.02
78623;BME280;67943;54.412;9.502;2024-03-23T13:56:48;100068.31;;;11.63;49.51
78623;BME280;67943;54.412;9.502;2024-03-23T14:01:52;100059.44;;;11.89;49.53
78623;BME280;67943;54.412;9.502;2024-03-23T14:06:52;100060.28;;;12.97;48.57
78623;BME280;67943;54.412;9.502;2024-03-23T14:11:53;100060.88;;;12.83;46.73
78623;BME280;67943;54.412;9.502;2024-03-23T14:16:56;100075.84;;;11.50;50.88
78623;BME280;67943;54.412;9.502;2024-03-23T14:21:57;100064.78;;;11.87;51.64
78623;BME280;67943;54.412;9.502;2024-03-23T14:26:58;100064.13;;;11.82;51.23
78623;BME280;67943;54.412;9.502;2024-03-23T14:32:01;100071.88;;;11.38;52.18
78623;BME280;67943;54.412;9.502;2024-03-23T14:37:02;100087.13;;;11.04;55.05
78623;BME280;67943;54.412;9.502;2024-03-23T14:42:03;100068.16;;;11.67;51.86
78623;BME280;67943;54.412;9.502;2024-03-23T14:47:06;100065.91;;;11.57;51.03
78623;BME280;67943;54.412;9.502;2024-03-23T14:52:07;100069.72;;;11.49;52.97
78623;BME280;67943;54.412;9.502;2024-03-23T14:57:08;100067.16;;;11.23;50.71
78623;BME280;67943;54.412;9.502;2024-03-23T15:02:11;100063.66;;;11.23;51.55
78623;BME280;67943;54.412;9.502;2024-03-23T15:07:12;100048.25;;;11.35;51.30
78623;BME280;67943;54.412;9.502;2024-03-23T15:12:13;100049.97;;;11.36;51.79
78623;BME280;67943;54.412;9.502;2024-03-23T15:17:16;100060.41;;;11.63;50.77
78623;BME280;67943;54.412;9.502;2024-03-23T15:22:17;100037.63;;;11.38;48.66
78623;BME280;67943;54.412;9.502;2024-03-23T15:27:18;100063.41;;;11.54;49.35
78623;BME280;67943;54.412;9.502;2024-03-23T15:32:21;100061.56;;;11.07;50.21
78623;BME280;67943;54.412;9.502;2024-03-23T15:37:22;100057.91;;;10.87;51.08
78623;BME280;67943;54.412;9.502;2024-03-23T15:42:22;100065.19;;;9.98;56.96
78623;BME280;67943;54.412;9.502;2024-03-23T15:47:26;100053.44;;;10.37;57.22
78623;BME280;67943;54.412;9.502;2024-03-23T15:52:26;100051.81;;;10.60;54.50
78623;BME280;67943;54.412;9.502;2024-03-23T15:57:27;100047.91;;;10.45;53.62
78623;BME280;67943;54.412;9.502;2024-03-23T16:02:30;100052.63;;;10.07;54.75
78623;BME280;67943;54.412;9.502;2024-03-23T16:07:31;100041.53;;;9.70;56.66
78623;BME280;67943;54.412;9.502;2024-03-23T16:12:32;100035.41;;;9.97;56.84
78623;BME280;67943;54.412;9.502;2024-03-23T16:17:35;100041.59;;;9.96;57.10
78623;BME280;67943;54.412;9.502;2024-03-23T16:22:36;100038.41;;;9.85;55.19
78623;BME280;67943;54.412;9.502;2024-03-23T16:27:36;100038.16;;;9.94;55.61
78623;BME280;67943;54.412;9.502;2024-03-23T16:32:40;100043.75;;;9.82;56.52
78623;BME280;67943;54.412;9.502;2024-03-23T16:37:40;100024.59;;;10.08;55.58
78623;BME280;67943;54.412;9.502;2024-03-23T16:42:41;100029.50;;;9.32;54.66
78623;BME280;67943;54.412;9.502;2024-03-23T16:47:44;100037.91;;;9.13;54.92
78623;BME280;67943;54.412;9.502;2024-03-23T16:52:45;100033.72;;;8.74;57.06
78623;BME280;67943;54.412;9.502;2024-03-23T16:57:46;100023.53;;;8.63;58.91
78623;BME280;67943;54.412;9.502;2024-03-23T17:02:49;100024.66;;;8.53;60.36
78623;BME280;67943;54.412;9.502;2024-03-23T17:07:50;100022.28;;;8.44;61.34
78623;BME280;67943;54.412;9.502;2024-03-23T17:12:50;100017.44;;;8.27;62.16
78623;BME280;67943;54.412;9.502;2024-03-23T17:17:54;100019.72;;;8.05;62.75
78623;BME280;67943;54.412;9.502;2024-03-23T17:22:55;100025.00;;;8.04;63.21
78623;BME280;67943;54.412;9.502;2024-03-23T17:27:56;100014.13;;;7.82;63.47
78623;BME280;67943;54.412;9.502;2024-03-23T17:32:59;100025.13;;;7.98;62.42
78623;BME280;67943;54.412;9.502;2024-03-23T17:38:00;100021.94;;;7.84;62.96
78623;BME280;67943;54.412;9.502;2024-03-23T17:43:00;100016.03;;;7.77;63.24
78623;BME280;67943;54.412;9.502;2024-03-23T17:48:04;100025.66;;;7.75;63.38
78623;BME280;67943;54.412;9.502;2024-03-23T17:53:05;100027.47;;;7.71;62.87
78623;BME280;67943;54.412;9.502;2024-03-23T17:58:05;100019.53;;;7.36;63.84
78623;BME280;67943;54.412;9.502;2024-03-23T18:03:09;100014.97;;;7.45;64.13
78623;BME280;67943;54.412;9.502;2024-03-23T18:08:09;100019.84;;;7.61;64.50
78623;BME280;67943;54.412;9.502;2024-03-23T18:13:10;100012.31;;;7.47;66.24
78623;BME280;67943;54.412;9.502;2024-03-23T18:18:13;100009.50;;;7.55;66.72
78623;BME280;67943;54.412;9.502;2024-03-23T18:23:14;100017.22;;;7.61;66.71
78623;BME280;67943;54.412;9.502;2024-03-23T18:28:15;100011.47;;;7.47;66.85
78623;BME280;67943;54.412;9.502;2024-03-23T18:33:18;100008.69;;;7.53;66.52
78623;BME280;67943;54.412;9.502;2024-03-23T18:38:19;100003.19;;;7.65;66.07
78623;BME280;67943;54.412;9.502;2024-03-23T18:43:20;100006.78;;;7.59;66.88
78623;BME280;67943;54.412;9.502;2024-03-23T18:48:23;99994.50;;;7.63;66.82
78623;BME280;67943;54.412;9.502;2024-03-23T18:53:25;99990.09;;;7.65;67.57
78623;BME280;67943;54.412;9.502;2024-03-23T18:58:26;99983.41;;;7.52;68.00
78623;BME280;67943;54.412;9.502;2024-03-23T19:03:30;99984.34;;;7.49;68.43
78623;BME280;67943;54.412;9.502;2024-03-23T19:08:31;99982.28;;;7.63;67.87
78623;BME280;67943;54.412;9.502;2024-03-23T19:13:31;99976.06;;;7.67;67.68
78623;BME280;67943;54.412;9.502;2024-03-23T19:18:35;99979.44;;;7.74;67.48
78623;BME280;67943;54.412;9.502;2024-03-23T19:23:36;99966.22;;;7.78;68.04
78623;BME280;67943;54.412;9.502;2024-03-23T19:28:37;99966.66;;;7.59;67.79
78623;BME280;67943;54.412;9.502;2024-03-23T19:33:40;99965.28;;;7.44;68.19
78623;BME280;67943;54.412;9.502;2024-03-23T19:38:41;99968.91;;;7.37;68.19
78623;BME280;67943;54.412;9.502;2024-03-23T19:43:42;99958.88;;;7.56;67.39
78623;BME280;67943;54.412;9.502;2024-03-23T19:48:45;99962.63;;;7.45;67.21
78623;BME280;67943;54.412;9.502;2024-03-23T19:53:46;99961.72;;;7.47;66.98
78623;BME280;67943;54.412;9.502;2024-03-23T19:58:46;99955.09;;;7.69;66.15
78623;BME280;67943;54.412;9.502;2024-03-23T20:03:50;99956.88;;;7.67;66.63
78623;BME280;67943;54.412;9.502;2024-03-23T20:08:50;99950.72;;;7.69;67.76
78623;BME280;67943;54.412;9.502;2024-03-23T20:13:51;99944.63;;;7.69;68.76
78623;BME280;67943;54.412;9.502;2024-03-23T20:18:55;99941.31;;;7.22;70.78
78623;BME280;67943;54.412;9.502;2024-03-23T20:23:56;99931.34;;;7.39;69.93
78623;BME280;67943;54.412;9.502;2024-03-23T20:28:57;99933.84;;;7.45;69.87
78623;BME280;67943;54.412;9.502;2024-03-23T20:34:00;99925.34;;;7.34;69.92
78623;BME280;67943;54.412;9.502;2024-03-23T20:39:01;99922.22;;;7.19;70.78
78623;BME280;67943;54.412;9.502;2024-03-23T20:44:02;99925.31;;;7.36;70.22
78623;BME280;67943;54.412;9.502;2024-03-23T20:49:06;99915.72;;;7.36;70.27
78623;BME280;67943;54.412;9.502;2024-03-23T20:54:07;99916.78;;;7.28;70.76
78623;BME280;67943;54.412;9.502;2024-03-23T20:59:08;99911.47;;;7.31;70.64
78623;BME280;67943;54.412;9.502;2024-03-23T21:04:11;99910.75;;;7.24;71.65
78623;BME280;67943;54.412;9.502;2024-03-23T21:09:12;99897.75;;;7.21;69.62
78623;BME280;67943;54.412;9.502;2024-03-23T21:14:13;99902.44;;;7.05;70.58
78623;BME280;67943;54.412;9.502;2024-03-23T21:19:16;99894.22;;;7.22;70.77
78623;BME280;67943;54.412;9.502;2024-03-23T21:24:17;99883.75;;;7.22;71.63
78623;BME280;67943;54.412;9.502;2024-03-23T21:29:18;99896.13;;;7.16;72.25
78623;BME280;67943;54.412;9.502;2024-03-23T21:34:21;99876.84;;;7.20;72.40
78623;BME280;67943;54.412;9.502;2024-03-23T21:39:22;99867.38;;;7.14;72.84
78623;BME280;67943;54.412;9.502;2024-03-23T21:44:22;99868.16;;;7.19;73.08
78623;BME280;67943;54.412;9.502;2024-03-23T21:49:26;99863.44;;;7.33;72.53
78623;BME280;67943;54.412;9.502;2024-03-23T21:54:27;99857.34;;;7.33;72.80
78623;BME280;67943;54.412;9.502;2024-03-23T21:59:27;99862.28;;;7.47;72.53
78623;BME280;67943;54.412;9.502;2024-03-23T22:04:30;99891.41;;;7.31;73.83
78623;BME280;67943;54.412;9.502;2024-03-23T22:09:31;99857.00;;;6.69;75.38
78623;BME280;67943;54.412;9.502;2024-03-23T22:14:32;99847.31;;;6.74;76.22
78623;BME280;67943;54.412;9.502;2024-03-23T22:19:35;99837.31;;;6.93;76.61
78623;BME280;67943;54.412;9.502;2024-03-23T22:24:36;99837.31;;;6.93;77.50
78623;BME280;67943;54.412;9.502;2024-03-23T22:29:37;99825.94;;;6.96;77.80
78623;BME280;67943;54.412;9.502;2024-03-23T22:34:40;99820.44;;;7.08;77.90
78623;BME280;67943;54.412;9.502;2024-03-23T22:39:41;99820.88;;;6.90;78.36
78623;BME280;67943;54.412;9.502;2024-03-23T22:44:41;99820.88;;;6.90;78.83
78623;BME280;67943;54.412;9.502;2024-03-23T22:49:45;99805.00;;;6.96;78.94
78623;BME280;67943;54.412;9.502;2024-03-23T22:54:45;99804.81;;;7.05;78.84
78623;BME280;67943;54.412;9.502;2024-03-23T22:59:46;99797.78;;;7.07;79.01
78623;BME280;67943;54.412;9.502;2024-03-23T23:04:51;99798.91;;;6.95;79.42
78623;BME280;67943;54.412;9.502;2024-03-23T23:09:52;99795.81;;;6.80;80.07
78623;BME280;67943;54.412;9.502;2024-03-23T23:14:52;99795.81;;;6.80;80.16
78623;BME280;67943;54.412;9.502;2024-03-23T23:19:56;99780.81;;;6.88;80.09
78623;BME280;67943;54.412;9.502;2024-03-23T23:24:56;99774.91;;;6.80;80.65
78623;BME280;67943;54.412;9.502;2024-03-23T23:29:57;99762.59;;;6.85;80.71
78623;BME280;67943;54.412;9.502;2024-03-23T23:35:01;99776.72;;;6.76;80.64
78623;BME280;67943;54.412;9.502;2024-03-23T23:40:03;99756.66;;;6.76;80.13
78623;BME280;67943;54.412;9.502;2024-03-23T23:45:07;99758.44;;;6.74;79.93
78623;BME280;67943;54.412;9.502;2024-03-23T23:50:11;99752.19;;;6.82;79.44
78623;BME280;67943;54.412;9.502;2024-03-23T23:55:12;99739.56;;;6.63;79.88
